sensor_id;sensor_type;location;lat;lon;timestamp;P1;durP1;ratioP1;P2;durP2;ratioP2
9675;SDS011;4876;42.656;23.292;2023-04-25T00:01:30;4.77;;;3.60;;
9675;SDS011;4876;42.656;23.292;2023-04-25T00:03:58;3.70;;;3.40;;
9675;SDS011;4876;42.656;23.292;2023-04-25T00:06:27;4.80;;;3.60;;
9675;SDS011;4876;42.656;23.292;2023-04-25T00:08:55;6.27;;;3.70;;
9675;SDS011;4876;42.656;23.292;2023-04-25T00:11:22;3.27;;;2.97;;
9675;SDS011;4876;42.656;23.292;2023-04-25T00:13:48;3.63;;;3.30;;
9675;SDS011;4876;42.656;23.292;2023-04-25T00:16:16;4.93;;;3.27;;
9675;SDS011;4876;42.656;23.292;2023-04-25T00:18:43;2.80;;;1.60;;
9675;SDS011;4876;42.656;23.292;2023-04-25T00:21:11;1.97;;;1.77;;
9675;SDS011;4876;42.656;23.292;2023-04-25T00:23:39;1.50;;;1.40;;
9675;SDS011;4876;42.656;23.292;2023-04-25T00:26:06;1.80;;;1.10;;
9675;SDS011;4876;42.656;23.292;2023-04-25T00:28:33;1.40;;;1.30;;
9675;SDS011;4876;42.656;23.292;2023-04-25T00:30:59;1.77;;;1.60;;
9675;SDS011;4876;42.656;23.292;2023-04-25T00:33:26;2.00;;;1.30;;
9675;SDS011;4876;42.656;23.292;2023-04-25T00:35:53;2.07;;;1.60;;
9675;SDS011;4876;42.656;23.292;2023-04-25T00:38:20;2.30;;;1.70;;
9675;SDS011;4876;42.656;23.292;2023-04-25T00:40:48;2.20;;;2.00;;
9675;SDS011;4876;42.656;23.292;2023-04-25T00:43:15;2.40;;;2.20;;
9675;SDS011;4876;42.656;23.292;2023-04-25T00:45:42;2.90;;;2.47;;
9675;SDS011;4876;42.656;23.292;2023-04-25T00:48:09;4.47;;;3.00;;
9675;SDS011;4876;42.656;23.292;2023-04-25T00:50:36;5.27;;;4.00;;
9675;SDS011;4876;42.656;23.292;2023-04-25T00:53:04;6.00;;;4.63;;
9675;SDS011;4876;42.656;23.292;2023-04-25T00:55:31;6.90;;;5.83;;
9675;SDS011;4876;42.656;23.292;2023-04-25T00:58:01;6.00;;;4.53;;
9675;SDS011;4876;42.656;23.292;2023-04-25T01:00:27;6.00;;;3.93;;
9675;SDS011;4876;42.656;23.292;2023-04-25T01:02:55;5.70;;;5.03;;
9675;SDS011;4876;42.656;23.292;2023-04-25T01:05:21;9.23;;;5.33;;
9675;SDS011;4876;42.656;23.292;2023-04-25T01:07:48;5.50;;;5.00;;
9675;SDS011;4876;42.656;23.292;2023-04-25T01:10:15;6.70;;;5.33;;
9675;SDS011;4876;42.656;23.292;2023-04-25T01:12:42;7.60;;;5.60;;
9675;SDS011;4876;42.656;23.292;2023-04-25T01:15:10;7.63;;;6.67;;
9675;SDS011;4876;42.656;23.292;2023-04-25T01:17:37;10.00;;;7.40;;
9675;SDS011;4876;42.656;23.292;2023-04-25T01:20:06;9.73;;;7.90;;
9675;SDS011;4876;42.656;23.292;2023-04-25T01:22:37;9.03;;;8.03;;
9675;SDS011;4876;42.656;23.292;2023-04-25T01:25:04;9.13;;;8.23;;
9675;SDS011;4876;42.656;23.292;2023-04-25T01:27:31;8.97;;;7.80;;
9675;SDS011;4876;42.656;23.292;2023-04-25T01:29:58;9.23;;;8.33;;
9675;SDS011;4876;42.656;23.292;2023-04-25T01:32:26;8.97;;;8.07;;
9675;SDS011;4876;42.656;23.292;2023-04-25T01:34:53;10.77;;;8.93;;
9675;SDS011;4876;42.656;23.292;2023-04-25T01:37:19;15.00;;;10.67;;
9675;SDS011;4876;42.656;23.292;2023-04-25T01:39:48;12.17;;;9.87;;
9675;SDS011;4876;42.656;23.292;2023-04-25T01:42:15;11.20;;;10.10;;
9675;SDS011;4876;42.656;23.292;2023-04-25T01:44:42;11.90;;;10.50;;
9675;SDS011;4876;42.656;23.292;2023-04-25T01:47:09;11.50;;;10.07;;
9675;SDS011;4876;42.656;23.292;2023-04-25T01:49:36;13.80;;;10.37;;
9675;SDS011;4876;42.656;23.292;2023-04-25T01:52:03;11.27;;;10.07;;
9675;SDS011;4876;42.656;23.292;2023-04-25T01:54:30;13.17;;;9.60;;
9675;SDS011;4876;42.656;23.292;2023-04-25T01:56:58;10.20;;;9.03;;
9675;SDS011;4876;42.656;23.292;2023-04-25T01:59:25;12.47;;;9.97;;
9675;SDS011;4876;42.656;23.292;2023-04-25T02:01:52;10.20;;;9.13;;
9675;SDS011;4876;42.656;23.292;2023-04-25T02:04:19;10.67;;;8.43;;
9675;SDS011;4876;42.656;23.292;2023-04-25T02:06:45;10.83;;;9.17;;
9675;SDS011;4876;42.656;23.292;2023-04-25T02:09:12;10.97;;;9.53;;
9675;SDS011;4876;42.656;23.292;2023-04-25T02:11:39;10.27;;;9.27;;
9675;SDS011;4876;42.656;23.292;2023-04-25T02:14:07;12.00;;;9.80;;
9675;SDS011;4876;42.656;23.292;2023-04-25T02:16:34;11.43;;;10.20;;
9675;SDS011;4876;42.656;23.292;2023-04-25T02:19:02;13.77;;;10.17;;
9675;SDS011;4876;42.656;23.292;2023-04-25T02:21:29;11.47;;;10.27;;
9675;SDS011;4876;42.656;23.292;2023-04-25T02:23:55;11.27;;;10.17;;
9675;SDS011;4876;42.656;23.292;2023-04-25T02:26:22;11.27;;;8.37;;
9675;SDS011;4876;42.656;23.292;2023-04-25T02:28:50;11.17;;;8.43;;
9675;SDS011;4876;42.656;23.292;2023-04-25T02:31:18;11.43;;;9.30;;
9675;SDS011;4876;42.656;23.292;2023-04-25T02:33:45;13.43;;;11.10;;
9675;SDS011;4876;42.656;23.292;2023-04-25T02:36:12;11.43;;;10.23;;
9675;SDS011;4876;42.656;23.292;2023-04-25T02:38:39;11.77;;;10.43;;
9675;SDS011;4876;42.656;23.292;2023-04-25T02:41:06;11.13;;;9.97;;
9675;SDS011;4876;42.656;23.292;2023-04-25T02:43:32;11.50;;;9.47;;
9675;SDS011;4876;42.656;23.292;2023-04-25T02:45:59;11.97;;;9.70;;
9675;SDS011;4876;42.656;23.292;2023-04-25T02:48:27;10.27;;;9.17;;
9675;SDS011;4876;42.656;23.292;2023-04-25T02:50:54;9.97;;;8.90;;
9675;SDS011;4876;42.656;23.292;2023-04-25T02:53:21;12.03;;;9.60;;
9675;SDS011;4876;42.656;23.292;2023-04-25T02:55:48;11.87;;;10.07;;
9675;SDS011;4876;42.656;23.292;2023-04-25T02:58:15;13.47;;;9.67;;
9675;SDS011;4876;42.656;23.292;2023-04-25T03:00:42;11.00;;;9.67;;
9675;SDS011;4876;42.656;23.292;2023-04-25T03:03:09;13.13;;;9.53;;
9675;SDS011;4876;42.656;23.292;2023-04-25T03:05:37;12.50;;;9.53;;
9675;SDS011;4876;42.656;23.292;2023-04-25T03:08:04;12.03;;;10.07;;
9675;SDS011;4876;42.656;23.292;2023-04-25T03:10:30;13.53;;;10.50;;
9675;SDS011;4876;42.656;23.292;2023-04-25T03:12:57;12.67;;;10.17;;
9675;SDS011;4876;42.656;23.292;2023-04-25T03:15:24;11.80;;;10.47;;
9675;SDS011;4876;42.656;23.292;2023-04-25T03:17:51;12.47;;;9.90;;
9675;SDS011;4876;42.656;23.292;2023-04-25T03:20:18;11.57;;;9.93;;
9675;SDS011;4876;42.656;23.292;2023-04-25T03:22:46;12.13;;;9.83;;
9675;SDS011;4876;42.656;23.292;2023-04-25T03:25:13;11.60;;;10.40;;
9675;SDS011;4876;42.656;23.292;2023-04-25T03:27:40;14.13;;;10.90;;
9675;SDS011;4876;42.656;23.292;2023-04-25T03:30:07;16.60;;;11.10;;
9675;SDS011;4876;42.656;23.292;2023-04-25T03:32:34;13.47;;;11.47;;
9675;SDS011;4876;42.656;23.292;2023-04-25T03:35:01;18.60;;;12.17;;
9675;SDS011;4876;42.656;23.292;2023-04-25T03:37:28;14.40;;;11.37;;
9675;SDS011;4876;42.656;23.292;2023-04-25T03:39:56;16.93;;;12.30;;
9675;SDS011;4876;42.656;23.292;2023-04-25T03:42:23;13.43;;;11.23;;
9675;SDS011;4876;42.656;23.292;2023-04-25T03:44:50;12.20;;;10.90;;
9675;SDS011;4876;42.656;23.292;2023-04-25T03:47:17;14.10;;;10.90;;
9675;SDS011;4876;42.656;23.292;2023-04-25T03:49:44;14.60;;;12.70;;
9675;SDS011;4876;42.656;23.292;2023-04-25T03:52:11;21.60;;;13.23;;
9675;SDS011;4876;42.656;23.292;2023-04-25T03:54:37;12.67;;;9.97;;
9675;SDS011;4876;42.656;23.292;2023-04-25T03:57:06;10.67;;;8.37;;
9675;SDS011;4876;42.656;23.292;2023-04-25T03:59:32;8.50;;;7.60;;
9675;SDS011;4876;42.656;23.292;2023-04-25T04:01:59;7.07;;;5.50;;
9675;SDS011;4876;42.656;23.292;2023-04-25T04:04:26;8.03;;;7.23;;
9675;SDS011;4876;42.656;23.292;2023-04-25T04:06:53;8.30;;;7.17;;
9675;SDS011;4876;42.656;23.292;2023-04-25T04:09:20;8.50;;;7.70;;
9675;SDS011;4876;42.656;23.292;2023-04-25T04:11:47;9.20;;;7.77;;
9675;SDS011;4876;42.656;23.292;2023-04-25T04:14:15;9.03;;;8.13;;
9675;SDS011;4876;42.656;23.292;2023-04-25T04:16:42;8.93;;;8.10;;
9675;SDS011;4876;42.656;23.292;2023-04-25T04:19:09;8.93;;;8.10;;
9675;SDS011;4876;42.656;23.292;2023-04-25T04:21:35;12.37;;;7.63;;
9675;SDS011;4876;42.656;23.292;2023-04-25T04:24:02;9.70;;;8.47;;
9675;SDS011;4876;42.656;23.292;2023-04-25T04:26:31;8.67;;;7.87;;
9675;SDS011;4876;42.656;23.292;2023-04-25T04:28:59;7.77;;;6.97;;
9675;SDS011;4876;42.656;23.292;2023-04-25T04:31:27;8.67;;;7.53;;
9675;SDS011;4876;42.656;23.292;2023-04-25T04:33:55;8.33;;;7.53;;
9675;SDS011;4876;42.656;23.292;2023-04-25T04:36:21;11.07;;;8.27;;
9675;SDS011;4876;42.656;23.292;2023-04-25T04:38:51;10.87;;;9.47;;
9675;SDS011;4876;42.656;23.292;2023-04-25T04:41:17;9.90;;;8.87;;
9675;SDS011;4876;42.656;23.292;2023-04-25T04:43:45;10.97;;;9.87;;
9675;SDS011;4876;42.656;23.292;2023-04-25T04:46:12;10.50;;;9.23;;
9675;SDS011;4876;42.656;23.292;2023-04-25T04:48:40;13.00;;;10.87;;
9675;SDS011;4876;42.656;23.292;2023-04-25T04:51:07;13.33;;;9.57;;
9675;SDS011;4876;42.656;23.292;2023-04-25T04:53:34;10.63;;;9.07;;
9675;SDS011;4876;42.656;23.292;2023-04-25T04:56:01;11.10;;;9.10;;
9675;SDS011;4876;42.656;23.292;2023-04-25T04:58:28;9.77;;;8.80;;
9675;SDS011;4876;42.656;23.292;2023-04-25T05:00:55;10.30;;;8.40;;
9675;SDS011;4876;42.656;23.292;2023-04-25T05:03:21;9.77;;;8.77;;
9675;SDS011;4876;42.656;23.292;2023-04-25T05:05:50;11.00;;;9.20;;
9675;SDS011;4876;42.656;23.292;2023-04-25T05:08:16;12.70;;;9.03;;
9675;SDS011;4876;42.656;23.292;2023-04-25T05:10:43;8.63;;;7.83;;
9675;SDS011;4876;42.656;23.292;2023-04-25T05:13:10;8.67;;;7.87;;
9675;SDS011;4876;42.656;23.292;2023-04-25T05:15:36;9.53;;;8.03;;
9675;SDS011;4876;42.656;23.292;2023-04-25T05:18:03;9.60;;;8.53;;
9675;SDS011;4876;42.656;23.292;2023-04-25T05:20:30;13.63;;;9.90;;
9675;SDS011;4876;42.656;23.292;2023-04-25T05:22:58;11.53;;;8.93;;
9675;SDS011;4876;42.656;23.292;2023-04-25T05:25:25;10.07;;;8.07;;
9675;SDS011;4876;42.656;23.292;2023-04-25T05:27:52;8.77;;;7.80;;
9675;SDS011;4876;42.656;23.292;2023-04-25T05:30:19;8.73;;;7.63;;
9675;SDS011;4876;42.656;23.292;2023-04-25T05:32:46;9.10;;;8.20;;
9675;SDS011;4876;42.656;23.292;2023-04-25T05:35:13;10.87;;;8.13;;
9675;SDS011;4876;42.656;23.292;2023-04-25T05:37:40;10.73;;;8.27;;
9675;SDS011;4876;42.656;23.292;2023-04-25T05:40:09;11.83;;;9.13;;
9675;SDS011;4876;42.656;23.292;2023-04-25T05:42:36;9.80;;;8.87;;
9675;SDS011;4876;42.656;23.292;2023-04-25T05:45:03;11.67;;;9.10;;
9675;SDS011;4876;42.656;23.292;2023-04-25T05:47:31;13.87;;;9.80;;
9675;SDS011;4876;42.656;23.292;2023-04-25T05:49:57;10.07;;;8.93;;
9675;SDS011;4876;42.656;23.292;2023-04-25T05:52:24;12.43;;;9.70;;
9675;SDS011;4876;42.656;23.292;2023-04-25T05:54:51;11.60;;;10.00;;
9675;SDS011;4876;42.656;23.292;2023-04-25T05:57:21;12.47;;;10.73;;
9675;SDS011;4876;42.656;23.292;2023-04-25T05:59:49;12.20;;;10.90;;
9675;SDS011;4876;42.656;23.292;2023-04-25T06:02:16;12.67;;;11.17;;
9675;SDS011;4876;42.656;23.292;2023-04-25T06:04:43;12.63;;;11.30;;
9675;SDS011;4876;42.656;23.292;2023-04-25T06:07:09;12.57;;;11.07;;
9675;SDS011;4876;42.656;23.292;2023-04-25T06:09:36;11.00;;;9.90;;
9675;SDS011;4876;42.656;23.292;2023-04-25T06:12:04;13.37;;;10.53;;
9675;SDS011;4876;42.656;23.292;2023-04-25T06:14:32;15.10;;;10.87;;
9675;SDS011;4876;42.656;23.292;2023-04-25T06:16:59;16.50;;;12.27;;
9675;SDS011;4876;42.656;23.292;2023-04-25T06:19:31;13.83;;;12.40;;
9675;SDS011;4876;42.656;23.292;2023-04-25T06:21:58;15.80;;;14.20;;
9675;SDS011;4876;42.656;23.292;2023-04-25T06:24:25;14.20;;;11.43;;
9675;SDS011;4876;42.656;23.292;2023-04-25T06:26:51;12.17;;;10.93;;
9675;SDS011;4876;42.656;23.292;2023-04-25T06:29:18;12.33;;;10.60;;
9675;SDS011;4876;42.656;23.292;2023-04-25T06:31:47;11.97;;;9.73;;
9675;SDS011;4876;42.656;23.292;2023-04-25T06:34:13;10.33;;;8.97;;
9675;SDS011;4876;42.656;23.292;2023-04-25T06:36:40;10.53;;;8.80;;
9675;SDS011;4876;42.656;23.292;2023-04-25T06:39:07;14.43;;;9.33;;
9675;SDS011;4876;42.656;23.292;2023-04-25T06:41:34;21.17;;;9.20;;
9675;SDS011;4876;42.656;23.292;2023-04-25T06:44:01;10.17;;;7.70;;
9675;SDS011;4876;42.656;23.292;2023-04-25T06:46:27;11.87;;;8.27;;
9675;SDS011;4876;42.656;23.292;2023-04-25T06:48:56;9.30;;;8.23;;
9675;SDS011;4876;42.656;23.292;2023-04-25T06:51:22;10.03;;;8.17;;
9675;SDS011;4876;42.656;23.292;2023-04-25T06:53:49;11.83;;;9.07;;
9675;SDS011;4876;42.656;23.292;2023-04-25T06:56:16;10.93;;;8.97;;
9675;SDS011;4876;42.656;23.292;2023-04-25T06:58:43;12.13;;;9.60;;
9675;SDS011;4876;42.656;23.292;2023-04-25T07:01:09;11.63;;;10.40;;
9675;SDS011;4876;42.656;23.292;2023-04-25T07:03:36;11.97;;;10.50;;
9675;SDS011;4876;42.656;23.292;2023-04-25T07:06:05;13.67;;;9.80;;
9675;SDS011;4876;42.656;23.292;2023-04-25T07:08:32;12.33;;;8.63;;
9675;SDS011;4876;42.656;23.292;2023-04-25T07:10:58;11.97;;;10.73;;
9675;SDS011;4876;42.656;23.292;2023-04-25T07:13:25;11.03;;;9.70;;
9675;SDS011;4876;42.656;23.292;2023-04-25T07:15:52;13.40;;;10.43;;
9675;SDS011;4876;42.656;23.292;2023-04-25T07:18:19;12.57;;;10.30;;
9675;SDS011;4876;42.656;23.292;2023-04-25T07:20:46;18.17;;;9.17;;
9675;SDS011;4876;42.656;23.292;2023-04-25T07:23:14;11.90;;;8.67;;
9675;SDS011;4876;42.656;23.292;2023-04-25T07:25:41;13.40;;;8.67;;
9675;SDS011;4876;42.656;23.292;2023-04-25T07:28:08;14.00;;;8.97;;
9675;SDS011;4876;42.656;23.292;2023-04-25T07:30:35;11.53;;;8.07;;
9675;SDS011;4876;42.656;23.292;2023-04-25T07:33:01;10.90;;;8.97;;
9675;SDS011;4876;42.656;23.292;2023-04-25T07:35:28;10.47;;;9.10;;
9675;SDS011;4876;42.656;23.292;2023-04-25T07:37:55;9.50;;;7.20;;
9675;SDS011;4876;42.656;23.292;2023-04-25T07:40:23;14.13;;;9.10;;
9675;SDS011;4876;42.656;23.292;2023-04-25T07:42:50;13.07;;;9.00;;
9675;SDS011;4876;42.656;23.292;2023-04-25T07:45:17;11.53;;;8.33;;
9675;SDS011;4876;42.656;23.292;2023-04-25T07:47:44;13.93;;;7.20;;
9675;SDS011;4876;42.656;23.292;2023-04-25T07:50:11;8.70;;;6.90;;
9675;SDS011;4876;42.656;23.292;2023-04-25T07:52:37;11.87;;;8.07;;
9675;SDS011;4876;42.656;23.292;2023-04-25T07:55:04;13.90;;;7.30;;
9675;SDS011;4876;42.656;23.292;2023-04-25T07:57:33;11.77;;;6.63;;
9675;SDS011;4876;42.656;23.292;2023-04-25T07:59:59;12.13;;;6.53;;
9675;SDS011;4876;42.656;23.292;2023-04-25T08:02:26;7.67;;;6.70;;
9675;SDS011;4876;42.656;23.292;2023-04-25T08:04:53;9.10;;;5.93;;
9675;SDS011;4876;42.656;23.292;2023-04-25T08:07:20;10.77;;;6.20;;
9675;SDS011;4876;42.656;23.292;2023-04-25T08:09:46;11.20;;;6.23;;
9675;SDS011;4876;42.656;23.292;2023-04-25T08:12:13;15.23;;;6.23;;
9675;SDS011;4876;42.656;23.292;2023-04-25T08:14:41;8.50;;;6.03;;
9675;SDS011;4876;42.656;23.292;2023-04-25T08:17:09;13.53;;;5.40;;
9675;SDS011;4876;42.656;23.292;2023-04-25T08:19:36;10.23;;;6.10;;
9675;SDS011;4876;42.656;23.292;2023-04-25T08:22:03;6.47;;;5.40;;
9675;SDS011;4876;42.656;23.292;2023-04-25T08:24:29;11.30;;;6.27;;
9675;SDS011;4876;42.656;23.292;2023-04-25T08:26:56;6.37;;;5.13;;
9675;SDS011;4876;42.656;23.292;2023-04-25T08:29:24;11.10;;;5.47;;
9675;SDS011;4876;42.656;23.292;2023-04-25T08:31:52;8.47;;;5.20;;
9675;SDS011;4876;42.656;23.292;2023-04-25T08:34:19;6.13;;;5.20;;
9675;SDS011;4876;42.656;23.292;2023-04-25T08:36:46;8.27;;;4.93;;
9675;SDS011;4876;42.656;23.292;2023-04-25T08:39:13;5.70;;;4.83;;
9675;SDS011;4876;42.656;23.292;2023-04-25T08:41:40;5.80;;;2.77;;
9675;SDS011;4876;42.656;23.292;2023-04-25T08:44:07;3.30;;;2.30;;
9675;SDS011;4876;42.656;23.292;2023-04-25T08:46:40;2.53;;;2.33;;
9675;SDS011;4876;42.656;23.292;2023-04-25T08:49:08;7.13;;;3.03;;
9675;SDS011;4876;42.656;23.292;2023-04-25T08:51:36;6.37;;;2.70;;
9675;SDS011;4876;42.656;23.292;2023-04-25T08:54:11;7.73;;;2.70;;
9675;SDS011;4876;42.656;23.292;2023-04-25T08:56:38;7.37;;;4.00;;
9675;SDS011;4876;42.656;23.292;2023-04-25T08:59:07;7.93;;;4.40;;
9675;SDS011;4876;42.656;23.292;2023-04-25T09:01:34;6.70;;;4.17;;
9675;SDS011;4876;42.656;23.292;2023-04-25T09:04:01;3.97;;;3.53;;
9675;SDS011;4876;42.656;23.292;2023-04-25T09:06:29;7.30;;;3.53;;
9675;SDS011;4876;42.656;23.292;2023-04-25T09:09:00;4.70;;;3.40;;
9675;SDS011;4876;42.656;23.292;2023-04-25T09:11:29;4.60;;;3.60;;
9675;SDS011;4876;42.656;23.292;2023-04-25T09:14:09;6.57;;;4.40;;
9675;SDS011;4876;42.656;23.292;2023-04-25T09:19:27;7.70;;;5.23;;
9675;SDS011;4876;42.656;23.292;2023-04-25T09:21:57;8.30;;;4.60;;
9675;SDS011;4876;42.656;23.292;2023-04-25T09:24:31;6.30;;;4.40;;
9675;SDS011;4876;42.656;23.292;2023-04-25T09:26:59;9.77;;;4.03;;
9675;SDS011;4876;42.656;23.292;2023-04-25T09:29:29;1.63;;;1.53;;
9675;SDS011;4876;42.656;23.292;2023-04-25T09:32:14;2.40;;;1.60;;
9675;SDS011;4876;42.656;23.292;2023-04-25T09:34:43;2.00;;;1.60;;
9675;SDS011;4876;42.656;23.292;2023-04-25T09:37:16;5.60;;;2.37;;
9675;SDS011;4876;42.656;23.292;2023-04-25T09:39:44;2.10;;;1.50;;
9675;SDS011;4876;42.656;23.292;2023-04-25T09:42:11;3.70;;;2.30;;
9675;SDS011;4876;42.656;23.292;2023-04-25T09:44:41;4.43;;;2.20;;
9675;SDS011;4876;42.656;23.292;2023-04-25T09:47:09;7.03;;;4.37;;
9675;SDS011;4876;42.656;23.292;2023-04-25T09:49:38;8.70;;;4.97;;
9675;SDS011;4876;42.656;23.292;2023-04-25T09:52:07;7.20;;;3.97;;
9675;SDS011;4876;42.656;23.292;2023-04-25T09:54:35;3.90;;;2.87;;
9675;SDS011;4876;42.656;23.292;2023-04-25T09:57:04;3.10;;;2.13;;
9675;SDS011;4876;42.656;23.292;2023-04-25T09:59:38;2.63;;;2.00;;
9675;SDS011;4876;42.656;23.292;2023-04-25T10:02:06;11.43;;;2.07;;
9675;SDS011;4876;42.656;23.292;2023-04-25T10:04:35;1.77;;;1.50;;
9675;SDS011;4876;42.656;23.292;2023-04-25T10:07:02;2.20;;;1.40;;
9675;SDS011;4876;42.656;23.292;2023-04-25T10:09:31;3.13;;;1.80;;
9675;SDS011;4876;42.656;23.292;2023-04-25T10:12:01;1.83;;;1.47;;
9675;SDS011;4876;42.656;23.292;2023-04-25T10:14:29;5.60;;;1.40;;
9675;SDS011;4876;42.656;23.292;2023-04-25T10:16:57;1.07;;;0.93;;
9675;SDS011;4876;42.656;23.292;2023-04-25T10:19:24;2.63;;;1.30;;
9675;SDS011;4876;42.656;23.292;2023-04-25T10:21:52;3.77;;;1.30;;
9675;SDS011;4876;42.656;23.292;2023-04-25T10:24:21;5.33;;;1.23;;
9675;SDS011;4876;42.656;23.292;2023-04-25T10:26:49;4.67;;;1.60;;
9675;SDS011;4876;42.656;23.292;2023-04-25T10:29:22;2.30;;;1.47;;
9675;SDS011;4876;42.656;23.292;2023-04-25T10:31:50;3.93;;;1.37;;
9675;SDS011;4876;42.656;23.292;2023-04-25T10:34:17;2.43;;;1.40;;
9675;SDS011;4876;42.656;23.292;2023-04-25T10:36:49;1.63;;;1.30;;
9675;SDS011;4876;42.656;23.292;2023-04-25T10:39:21;2.07;;;1.30;;
9675;SDS011;4876;42.656;23.292;2023-04-25T10:41:52;1.87;;;1.20;;
9675;SDS011;4876;42.656;23.292;2023-04-25T10:44:22;2.00;;;0.90;;
9675;SDS011;4876;42.656;23.292;2023-04-25T10:46:54;2.33;;;1.20;;
9675;SDS011;4876;42.656;23.292;2023-04-25T10:49:29;0.80;;;0.80;;
9675;SDS011;4876;42.656;23.292;2023-04-25T10:52:16;3.17;;;1.40;;
9675;SDS011;4876;42.656;23.292;2023-04-25T10:54:48;1.20;;;1.10;;
9675;SDS011;4876;42.656;23.292;2023-04-25T10:57:30;1.13;;;0.97;;
9675;SDS011;4876;42.656;23.292;2023-04-25T11:00:04;5.30;;;1.27;;
9675;SDS011;4876;42.656;23.292;2023-04-25T11:02:36;3.43;;;1.10;;
9675;SDS011;4876;42.656;23.292;2023-04-25T11:05:04;2.13;;;1.30;;
9675;SDS011;4876;42.656;23.292;2023-04-25T11:07:34;3.37;;;1.07;;
9675;SDS011;4876;42.656;23.292;2023-04-25T11:10:05;1.90;;;1.00;;
9675;SDS011;4876;42.656;23.292;2023-04-25T11:12:33;4.70;;;1.50;;
9675;SDS011;4876;42.656;23.292;2023-04-25T11:15:02;1.83;;;0.87;;
9675;SDS011;4876;42.656;23.292;2023-04-25T11:17:30;1.60;;;0.87;;
9675;SDS011;4876;42.656;23.292;2023-04-25T11:19:58;1.47;;;1.30;;
9675;SDS011;4876;42.656;23.292;2023-04-25T11:22:26;2.03;;;0.83;;
9675;SDS011;4876;42.656;23.292;2023-04-25T11:24:53;2.10;;;1.00;;
9675;SDS011;4876;42.656;23.292;2023-04-25T11:27:20;6.30;;;1.30;;
9675;SDS011;4876;42.656;23.292;2023-04-25T11:29:49;1.83;;;1.10;;
9675;SDS011;4876;42.656;23.292;2023-04-25T11:32:18;3.20;;;1.20;;
9675;SDS011;4876;42.656;23.292;2023-04-25T11:34:45;2.77;;;1.10;;
9675;SDS011;4876;42.656;23.292;2023-04-25T11:37:13;4.37;;;1.40;;
9675;SDS011;4876;42.656;23.292;2023-04-25T11:39:43;6.50;;;1.30;;
9675;SDS011;4876;42.656;23.292;2023-04-25T11:42:12;12.50;;;1.53;;
9675;SDS011;4876;42.656;23.292;2023-04-25T11:44:39;3.70;;;1.37;;
9675;SDS011;4876;42.656;23.292;2023-04-25T11:47:06;2.63;;;1.23;;
9675;SDS011;4876;42.656;23.292;2023-04-25T11:49:34;1.73;;;1.00;;
9675;SDS011;4876;42.656;23.292;2023-04-25T11:52:01;1.77;;;0.80;;
9675;SDS011;4876;42.656;23.292;2023-04-25T11:54:28;1.37;;;1.07;;
9675;SDS011;4876;42.656;23.292;2023-04-25T11:56:55;1.93;;;1.30;;
9675;SDS011;4876;42.656;23.292;2023-04-25T11:59:23;8.43;;;1.40;;
9675;SDS011;4876;42.656;23.292;2023-04-25T12:01:51;5.53;;;1.40;;
9675;SDS011;4876;42.656;23.292;2023-04-25T12:04:20;5.50;;;2.00;;
9675;SDS011;4876;42.656;23.292;2023-04-25T12:06:49;6.27;;;2.67;;
9675;SDS011;4876;42.656;23.292;2023-04-25T12:09:18;6.00;;;2.00;;
9675;SDS011;4876;42.656;23.292;2023-04-25T12:11:47;3.17;;;1.50;;
9675;SDS011;4876;42.656;23.292;2023-04-25T12:14:24;1.53;;;1.30;;
9675;SDS011;4876;42.656;23.292;2023-04-25T12:16:52;2.37;;;1.23;;
9675;SDS011;4876;42.656;23.292;2023-04-25T12:19:22;4.47;;;1.43;;
9675;SDS011;4876;42.656;23.292;2023-04-25T12:21:51;1.40;;;1.00;;
9675;SDS011;4876;42.656;23.292;2023-04-25T12:24:21;1.67;;;1.37;;
9675;SDS011;4876;42.656;23.292;2023-04-25T12:26:51;1.50;;;1.40;;
9675;SDS011;4876;42.656;23.292;2023-04-25T12:29:19;1.33;;;1.20;;
9675;SDS011;4876;42.656;23.292;2023-04-25T12:31:47;4.33;;;1.40;;
9675;SDS011;4876;42.656;23.292;2023-04-25T12:34:15;1.67;;;1.10;;
9675;SDS011;4876;42.656;23.292;2023-04-25T12:36:42;1.17;;;0.80;;
9675;SDS011;4876;42.656;23.292;2023-04-25T12:39:15;4.27;;;1.20;;
9675;SDS011;4876;42.656;23.292;2023-04-25T12:41:42;1.27;;;1.17;;
9675;SDS011;4876;42.656;23.292;2023-04-25T12:44:09;7.20;;;1.30;;
9675;SDS011;4876;42.656;23.292;2023-04-25T12:46:36;0.90;;;0.90;;
9675;SDS011;4876;42.656;23.292;2023-04-25T12:49:04;5.37;;;1.20;;
9675;SDS011;4876;42.656;23.292;2023-04-25T12:51:32;1.90;;;1.07;;
9675;SDS011;4876;42.656;23.292;2023-04-25T12:54:00;1.20;;;1.10;;
9675;SDS011;4876;42.656;23.292;2023-04-25T12:56:28;2.10;;;1.00;;
9675;SDS011;4876;42.656;23.292;2023-04-25T12:58:55;1.83;;;1.17;;
9675;SDS011;4876;42.656;23.292;2023-04-25T13:01:22;2.97;;;1.20;;
9675;SDS011;4876;42.656;23.292;2023-04-25T13:03:49;3.33;;;1.20;;
9675;SDS011;4876;42.656;23.292;2023-04-25T13:06:16;2.90;;;1.43;;
9675;SDS011;4876;42.656;23.292;2023-04-25T13:08:44;4.93;;;1.30;;
9675;SDS011;4876;42.656;23.292;2023-04-25T13:11:11;3.63;;;1.90;;
9675;SDS011;4876;42.656;23.292;2023-04-25T13:13:41;2.33;;;1.67;;
9675;SDS011;4876;42.656;23.292;2023-04-25T13:16:08;5.70;;;2.07;;
9675;SDS011;4876;42.656;23.292;2023-04-25T13:18:36;3.27;;;1.80;;
9675;SDS011;4876;42.656;23.292;2023-04-25T13:21:03;5.67;;;2.43;;
9675;SDS011;4876;42.656;23.292;2023-04-25T13:23:30;5.50;;;2.50;;
9675;SDS011;4876;42.656;23.292;2023-04-25T13:25:57;4.93;;;2.37;;
9675;SDS011;4876;42.656;23.292;2023-04-25T13:28:25;10.07;;;2.70;;
9675;SDS011;4876;42.656;23.292;2023-04-25T13:30:53;4.67;;;2.53;;
9675;SDS011;4876;42.656;23.292;2023-04-25T13:33:20;4.37;;;2.40;;
9675;SDS011;4876;42.656;23.292;2023-04-25T13:35:47;8.83;;;2.17;;
9675;SDS011;4876;42.656;23.292;2023-04-25T13:38:19;4.97;;;2.90;;
9675;SDS011;4876;42.656;23.292;2023-04-25T13:40:47;4.67;;;2.60;;
9675;SDS011;4876;42.656;23.292;2023-04-25T13:43:14;3.73;;;2.30;;
9675;SDS011;4876;42.656;23.292;2023-04-25T13:45:41;5.70;;;2.23;;
9675;SDS011;4876;42.656;23.292;2023-04-25T13:48:09;4.27;;;2.20;;
9675;SDS011;4876;42.656;23.292;2023-04-25T13:50:36;1.70;;;1.60;;
9675;SDS011;4876;42.656;23.292;2023-04-25T13:53:03;2.33;;;1.80;;
9675;SDS011;4876;42.656;23.292;2023-04-25T13:55:30;4.27;;;1.80;;
9675;SDS011;4876;42.656;23.292;2023-04-25T13:57:57;5.30;;;1.80;;
9675;SDS011;4876;42.656;23.292;2023-04-25T14:00:23;4.63;;;1.90;;
9675;SDS011;4876;42.656;23.292;2023-04-25T14:02:50;6.17;;;2.20;;
9675;SDS011;4876;42.656;23.292;2023-04-25T14:05:20;2.63;;;1.50;;
9675;SDS011;4876;42.656;23.292;2023-04-25T14:07:46;5.30;;;1.70;;
9675;SDS011;4876;42.656;23.292;2023-04-25T14:10:13;1.43;;;1.30;;
9675;SDS011;4876;42.656;23.292;2023-04-25T14:12:40;4.47;;;1.77;;
9675;SDS011;4876;42.656;23.292;2023-04-25T14:15:07;3.90;;;1.50;;
9675;SDS011;4876;42.656;23.292;2023-04-25T14:17:34;2.37;;;1.80;;
9675;SDS011;4876;42.656;23.292;2023-04-25T14:20:01;5.53;;;1.43;;
9675;SDS011;4876;42.656;23.292;2023-04-25T14:22:32;4.70;;;1.30;;
9675;SDS011;4876;42.656;23.292;2023-04-25T14:24:59;2.37;;;1.50;;
9675;SDS011;4876;42.656;23.292;2023-04-25T14:27:26;2.50;;;1.23;;
9675;SDS011;4876;42.656;23.292;2023-04-25T14:29:53;1.30;;;1.20;;
9675;SDS011;4876;42.656;23.292;2023-04-25T14:32:20;1.60;;;1.40;;
9675;SDS011;4876;42.656;23.292;2023-04-25T14:34:47;1.67;;;1.20;;
9675;SDS011;4876;42.656;23.292;2023-04-25T14:37:14;2.10;;;1.80;;
9675;SDS011;4876;42.656;23.292;2023-04-25T14:39:43;2.17;;;1.77;;
9675;SDS011;4876;42.656;23.292;2023-04-25T14:42:10;1.73;;;1.47;;
9675;SDS011;4876;42.656;23.292;2023-04-25T14:44:38;4.10;;;1.77;;
9675;SDS011;4876;42.656;23.292;2023-04-25T14:47:05;2.07;;;1.53;;
9675;SDS011;4876;42.656;23.292;2023-04-25T14:49:32;2.07;;;1.80;;
9675;SDS011;4876;42.656;23.292;2023-04-25T14:51:59;4.57;;;1.97;;
9675;SDS011;4876;42.656;23.292;2023-04-25T14:54:26;2.53;;;2.10;;
9675;SDS011;4876;42.656;23.292;2023-04-25T14:56:54;2.10;;;1.90;;
9675;SDS011;4876;42.656;23.292;2023-04-25T14:59:21;2.83;;;2.07;;
9675;SDS011;4876;42.656;23.292;2023-04-25T15:01:48;2.57;;;2.10;;